Time;durP1;ratioP1;P1;durP2;ratioP2;P2;SDS_P1;SDS_P2;PMS_P1;PMS_P2;Temp;Humidity;BMP_temperature;BMP_pressure;BME280_temperature;BME280_humidity;BME280_pressure;Samples;Min_cycle;Max_cycle;Signal;HPM_P1;HPM_P2
2023/12/27 00:01:02;;;;;;;18.73;11.45;;;14.60;99.90;;;;;;5184834;28;20099;-75
2023/12/27 00:03:33;;;;;;;18.63;10.25;;;14.70;99.90;;;;;;5186370;28;20033;-74
2023/12/27 00:06:04;;;;;;;14.88;10.55;;;14.70;99.90;;;;;;5185860;28;20030;-73
2023/12/27 00:08:35;;;;;;;19.05;11.60;;;14.60;99.90;;;;;;5186224;28;20033;-76
2023/12/27 00:11:06;;;;;;;18.48;11.88;;;14.60;99.90;;;;;;5186384;28;20044;-74
2023/12/27 00:13:37;;;;;;;18.38;12.13;;;14.50;99.90;;;;;;5185696;28;20140;-74
2023/12/27 00:16:08;;;;;;;20.10;12.50;;;14.60;99.90;;;;;;5186593;28;20050;-75
2023/12/27 00:18:39;;;;;;;17.80;11.93;;;14.50;99.90;;;;;;5186811;28;20112;-76
2023/12/27 00:21:10;;;;;;;18.77;13.10;;;14.50;99.90;;;;;;5186907;28;20030;-73
2023/12/27 00:23:41;;;;;;;20.25;12.80;;;14.40;99.90;;;;;;5186573;28;20025;-75
2023/12/27 00:26:13;;;;;;;15.80;12.88;;;14.40;99.90;;;;;;5185550;28;20453;-74
2023/12/27 00:28:43;;;;;;;18.63;12.57;;;14.40;99.90;;;;;;5186534;28;20037;-74
2023/12/27 00:31:14;;;;;;;18.35;12.77;;;14.20;99.90;;;;;;5186008;28;20026;-76
2023/12/27 00:33:45;;;;;;;18.23;13.45;;;14.30;99.90;;;;;;5171411;28;20062;-75
2023/12/27 00:36:20;;;;;;;18.60;13.27;;;14.30;99.90;;;;;;5166190;28;20030;-75
2023/12/27 00:38:51;;;;;;;20.38;13.68;;;14.40;99.90;;;;;;5166047;28;20109;-75
2023/12/27 00:41:22;;;;;;;21.25;12.88;;;14.30;99.90;;;;;;5166131;28;20106;-74
2023/12/27 00:43:53;;;;;;;18.63;14.38;;;14.40;99.90;;;;;;5165848;28;20045;-73
2023/12/27 00:46:23;;;;;;;15.85;12.35;;;14.40;99.90;;;;;;5166124;28;20113;-73
2023/12/27 00:48:54;;;;;;;19.23;13.07;;;14.40;99.90;;;;;;5165520;28;20030;-75
2023/12/27 00:51:25;;;;;;;17.08;11.85;;;14.50;99.90;;;;;;5165603;28;20034;-75
2023/12/27 00:53:56;;;;;;;18.10;11.80;;;14.50;99.90;;;;;;5165556;28;20044;-75
2023/12/27 00:56:27;;;;;;;18.35;12.02;;;14.40;99.90;;;;;;5165139;28;20046;-74
2023/12/27 00:58:58;;;;;;;20.65;12.50;;;14.50;99.90;;;;;;5165373;28;20069;-75
2023/12/27 01:01:30;;;;;;;20.38;11.98;;;14.40;99.90;;;;;;5165088;28;20066;-74
2023/12/27 01:04:01;;;;;;;19.35;11.70;;;14.60;99.90;;;;;;5164066;28;20033;-75
2023/12/27 01:06:31;;;;;;;19.85;13.05;;;14.40;99.90;;;;;;5164961;28;20650;-74
2023/12/27 01:09:03;;;;;;;23.58;12.20;;;14.50;99.90;;;;;;5164251;28;20109;-75
2023/12/27 01:11:34;;;;;;;17.17;11.32;;;14.40;99.90;;;;;;5165802;28;20467;-75
2023/12/27 01:14:05;;;;;;;19.73;11.65;;;14.40;99.90;;;;;;5164155;28;20019;-74
2023/12/27 01:16:36;;;;;;;20.25;12.10;;;14.50;99.90;;;;;;5164372;28;20391;-75
2023/12/27 01:19:07;;;;;;;24.92;12.35;;;14.40;99.90;;;;;;5165443;28;20033;-75
2023/12/27 01:21:38;;;;;;;18.20;12.70;;;14.30;99.90;;;;;;5165418;28;20023;-74
2023/12/27 01:24:09;;;;;;;22.35;14.02;;;14.10;99.90;;;;;;5165763;28;20030;-75
2023/12/27 01:26:40;;;;;;;17.15;14.18;;;14.40;99.90;;;;;;5164576;28;20392;-75
2023/12/27 01:29:10;;;;;;;20.85;14.38;;;14.40;99.90;;;;;;5165620;28;20031;-75
2023/12/27 01:31:41;;;;;;;24.33;13.57;;;14.40;99.90;;;;;;5165572;28;20513;-75
2023/12/27 01:34:13;;;;;;;19.40;13.68;;;14.40;99.90;;;;;;5165624;28;20057;-75
2023/12/27 01:36:44;;;;;;;23.25;14.60;;;14.30;99.90;;;;;;5165681;28;20859;-75
2023/12/27 01:39:15;;;;;;;22.00;17.58;;;14.30;99.90;;;;;;5169759;28;20037;-74
2023/12/27 01:41:46;;;;;;;23.73;17.90;;;14.40;99.90;;;;;;5169554;28;20022;-75
2023/12/27 01:44:17;;;;;;;24.55;17.95;;;14.30;99.90;;;;;;5169467;28;20046;-74
2023/12/27 01:46:48;;;;;;;21.00;17.63;;;14.40;99.90;;;;;;5169201;28;20112;-74
2023/12/27 01:49:19;;;;;;;22.23;17.30;;;14.30;99.90;;;;;;5168681;28;20117;-75
2023/12/27 01:51:50;;;;;;;24.88;19.02;;;14.30;99.90;;;;;;5168824;28;20101;-75
2023/12/27 01:54:21;;;;;;;28.52;20.00;;;14.30;99.90;;;;;;5168790;28;20030;-74
2023/12/27 01:56:52;;;;;;;22.25;17.08;;;14.40;99.90;;;;;;5168436;28;20596;-75
2023/12/27 01:59:23;;;;;;;20.42;15.95;;;14.50;99.90;;;;;;5168588;28;20030;-74
2023/12/27 02:01:55;;;;;;;26.88;15.35;;;14.40;99.90;;;;;;5168561;28;20065;-74
2023/12/27 02:04:26;;;;;;;22.25;15.02;;;14.50;99.90;;;;;;5168686;28;20030;-75
2023/12/27 02:06:57;;;;;;;21.63;16.30;;;14.50;99.90;;;;;;5167682;28;20068;-74
2023/12/27 02:09:28;;;;;;;20.45;15.00;;;14.50;99.90;;;;;;5168857;28;20038;-74
2023/12/27 02:11:59;;;;;;;22.85;14.38;;;14.40;99.90;;;;;;5167329;28;20097;-74
2023/12/27 02:14:30;;;;;;;24.85;13.65;;;14.30;99.90;;;;;;5167177;28;20031;-75
2023/12/27 02:17:01;;;;;;;20.42;15.30;;;14.20;99.90;;;;;;5168616;28;20570;-75
2023/12/27 02:19:32;;;;;;;23.70;15.38;;;14.40;99.90;;;;;;5167296;28;20023;-75
2023/12/27 02:22:04;;;;;;;26.70;13.60;;;14.30;99.90;;;;;;5168558;28;20061;-75
2023/12/27 02:24:36;;;;;;;21.38;12.52;;;14.40;99.90;;;;;;5168784;28;20409;-73
2023/12/27 02:27:07;;;;;;;19.60;13.15;;;14.50;99.90;;;;;;5168514;28;20089;-74
2023/12/27 02:29:38;;;;;;;20.95;13.05;;;14.40;99.90;;;;;;5168610;28;20482;-74
2023/12/27 02:32:09;;;;;;;25.13;11.88;;;14.20;99.90;;;;;;5168455;28;20117;-73
2023/12/27 02:34:40;;;;;;;21.77;12.48;;;14.30;99.90;;;;;;5168611;28;20034;-74
2023/12/27 02:37:11;;;;;;;21.45;12.90;;;14.30;99.90;;;;;;5168514;28;20034;-74
2023/12/27 02:39:42;;;;;;;20.50;12.98;;;14.40;99.90;;;;;;5166928;28;20370;-75
2023/12/27 02:42:13;;;;;;;20.40;13.75;;;14.20;99.90;;;;;;5166794;28;20037;-74
2023/12/27 02:44:44;;;;;;;25.60;13.60;;;14.10;99.90;;;;;;5167927;28;20034;-75
2023/12/27 02:47:14;;;;;;;23.15;13.80;;;14.20;99.90;;;;;;5167332;28;20026;-76
2023/12/27 02:49:45;;;;;;;21.27;14.68;;;14.10;99.90;;;;;;5165135;28;20042;-75
2023/12/27 02:52:16;;;;;;;27.48;14.30;;;14.00;99.90;;;;;;5166057;28;20478;-73
2023/12/27 02:54:47;;;;;;;21.98;14.98;;;14.00;99.90;;;;;;5167433;28;20490;-75
2023/12/27 02:57:18;;;;;;;21.02;13.40;;;14.10;99.90;;;;;;5167049;28;20104;-75
2023/12/27 02:59:49;;;;;;;24.83;14.75;;;13.90;99.90;;;;;;5167502;28;20038;-74
2023/12/27 03:02:20;;;;;;;27.55;15.65;;;14.00;99.90;;;;;;5167699;28;20026;-74
2023/12/27 03:04:51;;;;;;;26.55;12.82;;;13.90;99.90;;;;;;5166653;28;20037;-75
2023/12/27 03:07:21;;;;;;;24.83;13.55;;;13.90;99.90;;;;;;5167746;28;20467;-74
2023/12/27 03:09:52;;;;;;;25.42;14.45;;;13.80;99.90;;;;;;5167876;28;20034;-75
2023/12/27 03:12:23;;;;;;;23.65;12.48;;;13.90;99.90;;;;;;5167532;28;20034;-75
2023/12/27 03:14:54;;;;;;;28.10;11.95;;;14.00;99.90;;;;;;5167579;28;20051;-75
2023/12/27 03:17:25;;;;;;;20.25;11.88;;;13.80;99.90;;;;;;5167542;28;20034;-75
2023/12/27 03:19:56;;;;;;;23.23;11.93;;;13.80;99.90;;;;;;5167477;28;20050;-75
2023/12/27 03:22:27;;;;;;;25.13;13.05;;;13.60;99.90;;;;;;5167048;28;20077;-74
2023/12/27 03:24:58;;;;;;;24.58;13.70;;;13.50;99.90;;;;;;5167063;28;20097;-75
2023/12/27 03:27:28;;;;;;;24.00;14.07;;;13.60;99.90;;;;;;5166058;28;20113;-75
2023/12/27 03:29:59;;;;;;;27.48;16.75;;;13.40;99.90;;;;;;5167165;28;20036;-74
2023/12/27 03:32:30;;;;;;;28.27;19.45;;;13.40;99.90;;;;;;5167336;28;20029;-74
2023/12/27 03:35:02;;;;;;;27.27;20.30;;;13.60;99.90;;;;;;5167421;28;20027;-75
2023/12/27 03:37:33;;;;;;;24.15;18.30;;;13.40;99.90;;;;;;5166621;28;20034;-74
2023/12/27 03:40:04;;;;;;;24.33;17.75;;;13.40;99.90;;;;;;5167059;28;20381;-74
2023/12/27 03:42:35;;;;;;;22.63;18.30;;;13.50;99.90;;;;;;5166392;28;20069;-75
2023/12/27 03:45:07;;;;;;;23.77;19.30;;;13.40;99.90;;;;;;5658398;22;20058;-73
2023/12/27 03:47:37;;;;;;;26.23;17.33;;;13.20;99.90;;;;;;5165959;28;20062;-75
2023/12/27 03:50:09;;;;;;;24.17;13.32;;;13.30;99.90;;;;;;5167791;28;20061;-74
2023/12/27 03:52:42;;;;;;;24.38;12.30;;;13.10;99.90;;;;;;5186623;28;20025;-75
2023/12/27 03:55:13;;;;;;;25.25;14.07;;;12.90;99.90;;;;;;5185284;28;20473;-75
2023/12/27 03:57:44;;;;;;;19.88;13.95;;;12.90;99.90;;;;;;5187025;28;20061;-74
2023/12/27 04:00:15;;;;;;;20.85;12.05;;;12.90;99.90;;;;;;5185584;28;20057;-75
2023/12/27 04:02:46;;;;;;;23.00;12.98;;;13.10;99.90;;;;;;5186832;28;20067;-74
2023/12/27 04:05:17;;;;;;;25.98;12.35;;;13.00;99.90;;;;;;5187033;28;20042;-75
2023/12/27 04:07:48;;;;;;;24.50;12.35;;;12.90;99.90;;;;;;5186771;28;20028;-74
2023/12/27 04:10:19;;;;;;;21.75;10.80;;;13.20;99.90;;;;;;5186554;28;20037;-74
2023/12/27 04:12:50;;;;;;;23.27;10.98;;;13.20;99.90;;;;;;5186887;28;20018;-75
2023/12/27 04:15:21;;;;;;;20.23;11.27;;;13.30;99.90;;;;;;5177139;28;20045;-75
2023/12/27 04:17:52;;;;;;;20.98;11.63;;;13.20;99.90;;;;;;5166529;28;20025;-75
2023/12/27 04:20:23;;;;;;;23.30;11.57;;;13.40;99.90;;;;;;5166329;28;20053;-73
2023/12/27 04:22:53;;;;;;;18.70;11.00;;;13.20;99.90;;;;;;5166489;28;20019;-74
2023/12/27 04:25:24;;;;;;;20.55;10.82;;;13.30;99.90;;;;;;5166431;28;20070;-75
2023/12/27 04:27:55;;;;;;;29.45;12.23;;;13.40;99.90;;;;;;5166468;28;20517;-75
2023/12/27 04:30:26;;;;;;;21.45;11.63;;;13.50;99.90;;;;;;5166313;28;20455;-73
2023/12/27 04:32:57;;;;;;;24.00;12.23;;;13.30;99.90;;;;;;5166280;28;20169;-75
2023/12/27 04:35:28;;;;;;;22.63;11.85;;;13.30;99.90;;;;;;5166180;28;20101;-74
2023/12/27 04:37:59;;;;;;;27.02;11.82;;;13.10;99.90;;;;;;5157675;28;20023;-74
2023/12/27 04:40:29;;;;;;;27.90;12.00;;;13.10;99.90;;;;;;5145702;28;20081;-76
2023/12/27 04:43:01;;;;;;;20.75;12.32;;;13.20;99.90;;;;;;5145732;28;20023;-73
2023/12/27 04:45:31;;;;;;;25.60;12.60;;;13.10;99.90;;;;;;5145006;28;20079;-73
2023/12/27 04:48:03;;;;;;;26.98;12.30;;;13.10;99.90;;;;;;5145676;28;20021;-75
2023/12/27 04:50:34;;;;;;;26.33;12.95;;;13.10;99.90;;;;;;5145505;28;20081;-74
2023/12/27 04:53:04;;;;;;;24.00;12.48;;;13.20;99.90;;;;;;5146024;28;20054;-75
2023/12/27 04:55:35;;;;;;;22.92;12.90;;;13.30;99.90;;;;;;5145660;28;20034;-73
2023/12/27 04:58:06;;;;;;;27.35;13.45;;;13.20;99.90;;;;;;5145870;28;20022;-75
2023/12/27 05:00:37;;;;;;;23.08;13.07;;;13.10;99.90;;;;;;5146007;28;20575;-74
2023/12/27 05:03:08;;;;;;;23.52;14.88;;;13.30;99.90;;;;;;5145777;28;20033;-76
2023/12/27 05:05:39;;;;;;;23.42;14.50;;;13.10;99.90;;;;;;5145783;28;20034;-74
2023/12/27 05:08:10;;;;;;;26.27;15.07;;;13.10;99.90;;;;;;5145810;28;20391;-74
2023/12/27 05:10:41;;;;;;;24.15;15.30;;;13.10;99.90;;;;;;5145557;28;20042;-75
2023/12/27 05:13:12;;;;;;;30.70;16.95;;;13.30;99.90;;;;;;5145543;28;20029;-75
2023/12/27 05:15:43;;;;;;;25.75;14.75;;;13.00;99.90;;;;;;5145564;28;20042;-74
2023/12/27 05:18:14;;;;;;;23.55;15.25;;;13.00;99.90;;;;;;5145627;28;20054;-75
2023/12/27 05:20:45;;;;;;;22.35;15.15;;;13.20;99.90;;;;;;5145546;28;20050;-75
2023/12/27 05:23:16;;;;;;;23.58;16.05;;;13.20;99.90;;;;;;5145737;28;20106;-75
2023/12/27 05:25:46;;;;;;;22.63;14.90;;;13.30;99.90;;;;;;5146071;28;20030;-75
2023/12/27 05:28:17;;;;;;;27.73;16.30;;;13.40;99.90;;;;;;5145128;28;20352;-75
2023/12/27 05:30:48;;;;;;;28.10;14.48;;;13.30;99.90;;;;;;5145503;28;20086;-76
2023/12/27 05:33:19;;;;;;;25.42;15.05;;;13.20;99.90;;;;;;5145365;28;20530;-74
2023/12/27 05:35:51;;;;;;;24.50;15.15;;;13.00;99.90;;;;;;5144865;28;20368;-75
2023/12/27 05:38:22;;;;;;;25.30;13.57;;;13.20;99.90;;;;;;5144843;28;20069;-75
2023/12/27 05:40:53;;;;;;;25.77;13.48;;;13.20;99.90;;;;;;5143642;28;20383;-73
2023/12/27 05:43:24;;;;;;;21.92;12.82;;;13.30;99.90;;;;;;5145156;28;20042;-75
2023/12/27 05:45:55;;;;;;;25.33;13.77;;;13.00;99.90;;;;;;5145001;28;20062;-75
2023/12/27 05:48:26;;;;;;;24.42;13.65;;;13.30;99.90;;;;;;5145088;28;20086;-75
2023/12/27 05:50:57;;;;;;;29.25;13.40;;;13.30;99.90;;;;;;5144080;28;20039;-75
2023/12/27 05:53:28;;;;;;;25.90;15.25;;;13.10;99.90;;;;;;5145412;28;20019;-74
2023/12/27 05:55:59;;;;;;;25.77;15.10;;;13.60;99.90;;;;;;5145232;28;20126;-75
2023/12/27 05:58:30;;;;;;;24.02;13.60;;;13.50;99.90;;;;;;5145371;28;20094;-75
2023/12/27 06:01:01;;;;;;;20.95;12.80;;;13.30;99.90;;;;;;5144208;28;20031;-76
2023/12/27 06:03:32;;;;;;;20.45;12.77;;;13.50;99.90;;;;;;5144526;28;20023;-75
2023/12/27 06:06:03;;;;;;;23.85;13.15;;;13.30;99.90;;;;;;5144349;28;20387;-81
2023/12/27 06:08:34;;;;;;;19.08;11.85;;;13.30;99.90;;;;;;5144460;28;20027;-74
2023/12/27 06:11:11;;;;;;;24.67;13.45;;;13.40;99.90;;;;;;5144188;28;20035;-77
2023/12/27 06:13:42;;;;;;;26.38;12.25;;;13.60;99.90;;;;;;5143987;28;20027;-75
2023/12/27 06:16:13;;;;;;;25.23;13.30;;;13.50;99.90;;;;;;5143493;28;20042;-74
2023/12/27 06:18:44;;;;;;;29.42;12.65;;;13.50;99.90;;;;;;5143879;28;20023;-75
2023/12/27 06:21:15;;;;;;;25.75;13.88;;;13.60;99.90;;;;;;5140877;28;20034;-76
2023/12/27 06:23:46;;;;;;;20.42;12.25;;;13.80;99.90;;;;;;5143426;28;20387;-75
2023/12/27 06:26:17;;;;;;;30.45;12.30;;;13.70;99.90;;;;;;5146830;28;20023;-76
2023/12/27 06:28:48;;;;;;;25.30;11.90;;;13.70;99.90;;;;;;5144779;28;20086;-74
2023/12/27 06:31:19;;;;;;;18.50;10.27;;;13.90;99.90;;;;;;5145861;28;20034;-73
2023/12/27 06:33:50;;;;;;;23.27;11.18;;;14.00;99.90;;;;;;5146097;28;20022;-74
2023/12/27 06:36:22;;;;;;;22.77;11.68;;;14.00;99.90;;;;;;5145996;28;20065;-74
2023/12/27 06:38:53;;;;;;;22.58;10.73;;;14.00;99.90;;;;;;5145189;28;20502;-74
2023/12/27 06:41:24;;;;;;;22.38;10.55;;;14.10;99.90;;;;;;5152026;28;20538;-75
2023/12/27 06:43:55;;;;;;;20.45;10.88;;;14.10;99.90;;;;;;5159220;28;20372;-76
2023/12/27 06:46:26;;;;;;;24.80;11.60;;;14.40;99.90;;;;;;5145135;28;20054;-77
2023/12/27 06:48:57;;;;;;;21.05;9.75;;;14.50;99.90;;;;;;5135284;28;20102;-74
2023/12/27 06:51:28;;;;;;;23.85;9.85;;;14.70;99.90;;;;;;5137939;28;21340;-72
2023/12/27 06:53:59;;;;;;;20.98;10.02;;;14.90;99.90;;;;;;5135777;28;20089;-73
2023/12/27 06:56:30;;;;;;;22.30;9.48;;;15.00;99.90;;;;;;5136941;28;20086;-75
2023/12/27 06:59:01;;;;;;;21.58;10.07;;;15.00;99.90;;;;;;5151332;28;20030;-73
2023/12/27 07:01:32;;;;;;;19.23;9.50;;;15.00;99.90;;;;;;5138147;28;20031;-73
2023/12/27 07:04:03;;;;;;;20.55;10.13;;;15.20;99.90;;;;;;5134012;28;20101;-75
2023/12/27 07:06:34;;;;;;;19.83;10.98;;;15.30;99.90;;;;;;5134807;28;20384;-76
2023/12/27 07:09:05;;;;;;;19.85;13.38;;;15.50;99.90;;;;;;5139156;28;20117;-77
2023/12/27 07:11:36;;;;;;;24.13;14.45;;;15.40;99.90;;;;;;5136063;28;20093;-72
2023/12/27 07:14:07;;;;;;;24.08;15.00;;;15.40;99.90;;;;;;5132644;28;20026;-76
2023/12/27 07:16:38;;;;;;;29.02;18.20;;;15.40;99.90;;;;;;5135830;28;20459;-75
2023/12/27 07:19:09;;;;;;;28.40;19.05;;;15.60;99.90;;;;;;5141140;28;20034;-75
2023/12/27 07:21:40;;;;;;;26.33;19.35;;;15.60;99.90;;;;;;5134928;28;20068;-71
2023/12/27 07:24:11;;;;;;;27.10;21.17;;;15.40;99.90;;;;;;5135102;28;20030;-73
2023/12/27 07:26:42;;;;;;;31.50;19.85;;;15.50;99.90;;;;;;5135932;28;20023;-74
2023/12/27 07:29:13;;;;;;;24.85;19.85;;;15.60;99.90;;;;;;5133725;28;20495;-71
2023/12/27 07:31:43;;;;;;;34.97;21.83;;;15.70;99.90;;;;;;5135833;28;20034;-73
2023/12/27 07:34:16;;;;;;;38.28;26.33;;;15.80;99.90;;;;;;5136167;28;20946;-72
2023/12/27 07:36:47;;;;;;;29.75;17.83;;;15.90;99.90;;;;;;5134143;28;20035;-75
2023/12/27 07:39:18;;;;;;;28.85;16.65;;;16.00;99.90;;;;;;5136269;28;20376;-77
2023/12/27 07:41:49;;;;;;;37.35;24.45;;;16.00;99.90;;;;;;5133937;28;20035;-75
2023/12/27 07:44:21;;;;;;;35.38;27.48;;;16.10;99.90;;;;;;5134375;28;20098;-75
2023/12/27 07:46:52;;;;;;;22.50;16.48;;;16.30;99.90;;;;;;5136269;28;20054;-75
2023/12/27 07:49:25;;;;;;;24.40;16.40;;;16.40;99.90;;;;;;5136571;28;20046;-73
2023/12/27 07:51:56;;;;;;;27.80;17.98;;;16.30;99.90;;;;;;5135784;28;20541;-73
2023/12/27 07:54:27;;;;;;;24.52;15.18;;;16.50;99.90;;;;;;5136709;28;20031;-72
2023/12/27 07:56:58;;;;;;;21.17;13.05;;;16.60;99.90;;;;;;5135842;28;20461;-73
2023/12/27 07:59:30;;;;;;;20.35;12.38;;;16.50;99.90;;;;;;5133527;28;20958;-74
2023/12/27 08:02:01;;;;;;;24.98;13.63;;;16.50;99.90;;;;;;5129366;28;20031;-71
2023/12/27 08:04:32;;;;;;;26.95;13.25;;;16.50;99.90;;;;;;5134258;28;20034;-73
2023/12/27 08:07:03;;;;;;;23.95;14.23;;;16.80;99.90;;;;;;5137259;28;20118;-72
2023/12/27 08:09:35;;;;;;;23.02;13.93;;;17.10;99.90;;;;;;5138995;28;20035;-71
2023/12/27 08:12:06;;;;;;;28.30;14.25;;;17.20;99.90;;;;;;5136520;28;20597;-72
2023/12/27 08:14:37;;;;;;;23.45;14.15;;;17.00;99.90;;;;;;5135363;28;20150;-73
2023/12/27 08:17:08;;;;;;;21.33;12.82;;;17.10;99.90;;;;;;5135119;28;20093;-72
2023/12/27 08:19:39;;;;;;;24.80;12.80;;;17.30;99.90;;;;;;5134590;28;20046;-74
2023/12/27 08:22:10;;;;;;;23.85;14.15;;;17.30;99.90;;;;;;5131925;28;20027;-76
2023/12/27 08:24:41;;;;;;;19.40;12.25;;;17.50;99.90;;;;;;5133856;28;20034;-74
2023/12/27 08:27:12;;;;;;;20.08;11.93;;;17.60;99.90;;;;;;5132199;28;20125;-73
2023/12/27 08:29:44;;;;;;;19.05;11.45;;;17.60;99.90;;;;;;5132748;28;20623;-72
2023/12/27 08:32:15;;;;;;;19.88;11.40;;;17.60;99.90;;;;;;5131902;28;20106;-72
2023/12/27 08:34:46;;;;;;;18.42;12.15;;;17.50;99.90;;;;;;5141888;28;20029;-75
2023/12/27 08:37:17;;;;;;;17.60;11.98;;;17.60;99.90;;;;;;5143828;28;20033;-75
2023/12/27 08:39:48;;;;;;;19.02;11.98;;;17.90;99.90;;;;;;5143819;28;20030;-74
2023/12/27 08:42:19;;;;;;;18.65;11.48;;;17.90;99.90;;;;;;5144626;28;20031;-71
2023/12/27 08:44:50;;;;;;;15.45;11.50;;;17.80;99.90;;;;;;5144166;28;20102;-75
2023/12/27 08:47:22;;;;;;;16.15;8.60;;;18.00;99.90;;;;;;5142250;28;20070;-75
2023/12/27 08:49:55;;;;;;;18.63;8.98;;;18.00;99.90;;;;;;5144378;28;20042;-73
2023/12/27 08:52:25;;;;;;;16.77;10.73;;;18.00;99.90;;;;;;5144880;28;20038;-75
2023/12/27 08:54:56;;;;;;;14.07;10.25;;;17.90;99.90;;;;;;5144929;28;20487;-76
2023/12/27 08:57:27;;;;;;;15.63;11.85;;;17.90;99.90;;;;;;5144681;28;20031;-73
2023/12/27 08:59:58;;;;;;;18.10;10.27;;;18.30;99.90;;;;;;5144373;28;20081;-70
2023/12/27 09:02:29;;;;;;;18.33;12.07;;;18.30;99.90;;;;;;5144442;28;20386;-75
2023/12/27 09:05:01;;;;;;;18.42;11.52;;;18.30;99.90;;;;;;5144523;28;20030;-76
2023/12/27 09:07:32;;;;;;;17.17;12.95;;;18.40;99.90;;;;;;5143413;28;20041;-76
2023/12/27 09:10:04;;;;;;;20.40;15.27;;;18.30;99.90;;;;;;5144414;28;20046;-72
2023/12/27 09:12:35;;;;;;;11.90;9.05;;;18.40;99.90;;;;;;5143607;28;20127;-76
2023/12/27 09:15:07;;;;;;;18.65;13.85;;;18.50;99.90;;;;;;5611345;22;20029;-75
2023/12/27 09:17:38;;;;;;;20.15;16.02;;;18.50;99.90;;;;;;5163222;28;20042;-76
2023/12/27 09:20:09;;;;;;;12.57;10.07;;;18.60;99.90;;;;;;5163089;28;20437;-71
2023/12/27 09:22:40;;;;;;;21.15;18.35;;;18.50;99.90;;;;;;5163125;28;20458;-74
2023/12/27 09:25:12;;;;;;;18.05;16.55;;;18.60;99.90;;;;;;5163325;28;20054;-76
2023/12/27 09:27:44;;;;;;;17.45;15.88;;;18.80;99.90;;;;;;5163626;28;20019;-72
2023/12/27 09:30:15;;;;;;;19.83;18.23;;;19.20;99.90;;;;;;5163753;28;20410;-76
2023/12/27 09:32:46;;;;;;;17.17;15.52;;;19.10;99.90;;;;;;5164385;28;20049;-76
2023/12/27 09:35:17;;;;;;;15.05;13.75;;;19.20;99.90;;;;;;5164141;28;20084;-72
2023/12/27 09:37:48;;;;;;;16.77;15.10;;;19.20;99.90;;;;;;5164252;28;20026;-74
2023/12/27 09:40:19;;;;;;;12.23;10.93;;;19.40;99.90;;;;;;5164080;28;20022;-75
2023/12/27 09:42:51;;;;;;;11.73;9.82;;;19.00;99.90;;;;;;5164364;28;20033;-76
2023/12/27 09:45:23;;;;;;;9.80;8.82;;;19.20;99.90;;;;;;5157316;28;20092;-76
2023/12/27 09:47:55;;;;;;;10.10;9.05;;;19.30;99.90;;;;;;5144113;28;20035;-74
2023/12/27 09:50:26;;;;;;;10.77;8.35;;;19.40;99.90;;;;;;5142488;28;20419;-76
2023/12/27 09:52:59;;;;;;;8.88;7.97;;;19.30;99.90;;;;;;5143884;28;20019;-73
2023/12/27 09:55:30;;;;;;;7.85;7.05;;;19.30;99.90;;;;;;5142730;28;20030;-75
2023/12/27 09:58:01;;;;;;;11.27;8.57;;;19.10;99.90;;;;;;5144455;28;20030;-71
2023/12/27 10:00:33;;;;;;;9.07;7.97;;;18.60;99.90;;;;;;5147846;28;20080;-71
2023/12/27 10:03:06;;;;;;;10.18;9.13;;;19.00;99.90;;;;;;5147821;28;20014;-75
2023/12/27 10:05:58;;;;;;;12.25;8.88;;;18.80;99.90;;;;;;5146187;28;20055;-76
2023/12/27 10:08:29;;;;;;;12.93;9.65;;;18.80;99.90;;;;;;5159995;28;20033;-74
2023/12/27 10:11:02;;;;;;;10.50;9.23;;;19.10;99.90;;;;;;5147437;28;20471;-75
2023/12/27 10:13:36;;;;;;;15.40;10.38;;;19.20;99.90;;;;;;5150904;28;20105;-74
2023/12/27 10:16:07;;;;;;;12.77;10.93;;;19.20;99.90;;;;;;5646911;22;20308;-70
2023/12/27 10:18:38;;;;;;;11.32;10.02;;;19.00;99.90;;;;;;5146584;28;20035;-74
2023/12/27 10:21:09;;;;;;;11.38;10.25;;;19.50;99.90;;;;;;5147015;28;20026;-74
2023/12/27 10:23:40;;;;;;;13.13;11.82;;;19.40;99.90;;;;;;5147319;28;20550;-75
2023/12/27 10:26:11;;;;;;;12.18;10.98;;;19.60;99.90;;;;;;5147282;28;20039;-75
2023/12/27 10:28:42;;;;;;;13.27;11.55;;;19.60;99.90;;;;;;5146716;28;20507;-72
2023/12/27 10:31:14;;;;;;;13.32;12.23;;;20.00;99.90;;;;;;5147132;28;20407;-75
2023/12/27 10:33:46;;;;;;;12.20;10.70;;;20.00;99.90;;;;;;5129414;28;20022;-76
2023/12/27 10:36:17;;;;;;;12.02;10.77;;;20.00;99.90;;;;;;5147443;28;20482;-76
2023/12/27 10:38:49;;;;;;;10.68;9.38;;;20.00;99.90;;;;;;5147314;28;20103;-74
2023/12/27 10:41:22;;;;;;;10.57;9.48;;;19.50;99.90;;;;;;5147733;28;20109;-75
2023/12/27 10:43:53;;;;;;;12.20;8.98;;;19.70;99.90;;;;;;5147483;28;20066;-73
2023/12/27 10:46:24;;;;;;;9.85;8.88;;;20.20;99.90;;;;;;5146701;28;20423;-75
2023/12/27 10:48:59;;;;;;;11.43;8.13;;;20.10;99.90;;;;;;5146621;28;20030;-71
2023/12/27 10:51:30;;;;;;;12.13;7.78;;;20.20;99.90;;;;;;5146719;28;20533;-76
2023/12/27 10:54:02;;;;;;;9.50;8.55;;;20.30;99.90;;;;;;5146758;28;20078;-75
2023/12/27 10:56:39;;;;;;;11.52;8.32;;;20.60;99.90;;;;;;5146483;28;20038;-71
2023/12/27 10:59:10;;;;;;;9.52;8.15;;;20.70;99.90;;;;;;5146446;28;20360;-75
2023/12/27 11:01:43;;;;;;;8.98;7.20;;;20.20;99.90;;;;;;5146220;28;20509;-71
2023/12/27 11:04:16;;;;;;;11.77;7.07;;;20.40;99.90;;;;;;5145680;28;20051;-73
2023/12/27 11:06:49;;;;;;;10.60;8.52;;;20.40;99.90;;;;;;5145904;28;20033;-73
2023/12/27 11:09:23;;;;;;;8.43;7.40;;;20.60;99.90;;;;;;5143880;28;20050;-75
2023/12/27 11:11:56;;;;;;;11.00;8.15;;;20.40;99.90;;;;;;5143952;28;20011;-75
2023/12/27 11:14:32;;;;;;;8.52;7.68;;;20.00;99.90;;;;;;5144388;28;20030;-74
2023/12/27 11:17:08;;;;;;;9.30;7.60;;;20.00;99.90;;;;;;5141692;28;20053;-74
2023/12/27 11:19:41;;;;;;;8.05;7.30;;;19.90;99.90;;;;;;5142873;28;20031;-71
2023/12/27 11:22:12;;;;;;;9.27;8.02;;;20.30;99.90;;;;;;5145117;28;20027;-72
2023/12/27 11:24:44;;;;;;;9.25;7.97;;;20.30;99.90;;;;;;5144158;28;20479;-71
2023/12/27 11:27:19;;;;;;;9.63;8.55;;;20.80;99.90;;;;;;5142821;28;20035;-75
2023/12/27 11:29:50;;;;;;;9.77;8.77;;;21.00;99.90;;;;;;5141745;28;20140;-75
2023/12/27 11:32:20;;;;;;;7.70;6.88;;;21.30;99.90;;;;;;5140948;28;20216;-73
2023/12/27 11:34:53;;;;;;;9.05;6.95;;;21.00;99.90;;;;;;5139751;28;20392;-73
2023/12/27 11:37:24;;;;;;;9.00;7.45;;;21.50;99.90;;;;;;5134310;28;20026;-76
2023/12/27 11:39:56;;;;;;;10.20;9.27;;;21.40;99.90;;;;;;5134721;28;20435;-76
2023/12/27 11:42:27;;;;;;;10.32;9.43;;;21.10;99.90;;;;;;5136836;28;20042;-74
2023/12/27 11:44:58;;;;;;;9.80;8.60;;;20.90;99.90;;;;;;5136166;28;20490;-75
2023/12/27 11:47:30;;;;;;;10.70;9.13;;;20.90;99.90;;;;;;5141645;28;20366;-76
2023/12/27 11:50:13;;;;;;;9.85;7.88;;;20.80;99.90;;;;;;5143187;28;20398;-72
2023/12/27 11:52:49;;;;;;;11.93;10.05;;;20.80;99.90;;;;;;5141954;28;20478;-74
2023/12/27 11:55:21;;;;;;;10.10;9.07;;;20.40;99.90;;;;;;5143755;28;20014;-75
2023/12/27 11:57:58;;;;;;;14.70;11.73;;;20.10;99.90;;;;;;5142949;28;20081;-72
2023/12/27 12:00:29;;;;;;;10.38;8.82;;;20.50;99.90;;;;;;5144317;28;20062;-74
2023/12/27 12:03:07;;;;;;;12.35;9.73;;;20.80;99.90;;;;;;5131975;28;20444;-72
2023/12/27 12:06:28;;;;;;;10.73;8.65;;;20.40;99.90;;;;;;5123995;29;20027;-74
2023/12/27 12:09:00;;;;;;;10.57;8.60;;;20.50;99.90;;;;;;5095866;28;20046;-71
2023/12/27 12:11:34;;;;;;;10.98;8.77;;;20.50;99.90;;;;;;5143698;28;20034;-73
2023/12/27 12:14:05;;;;;;;12.10;8.30;;;20.80;99.90;;;;;;5143710;28;20053;-73
2023/12/27 12:16:38;;;;;;;10.48;9.07;;;20.70;99.90;;;;;;5143288;28;20503;-71
2023/12/27 12:19:12;;;;;;;11.80;9.57;;;20.70;99.90;;;;;;5144935;28;20357;-74
2023/12/27 12:21:45;;;;;;;10.10;9.10;;;21.00;99.90;;;;;;5144908;28;20364;-71
2023/12/27 12:24:20;;;;;;;11.15;10.15;;;21.60;99.90;;;;;;5144896;28;20409;-71
2023/12/27 12:26:51;;;;;;;9.80;8.80;;;21.80;99.90;;;;;;5145192;28;20015;-75
2023/12/27 12:29:24;;;;;;;8.00;7.15;;;22.50;99.90;;;;;;5144840;28;20518;-74
2023/12/27 12:31:56;;;;;;;9.05;5.93;;;24.30;99.90;;;;;;5144707;28;20031;-75
2023/12/27 12:34:27;;;;;;;8.98;6.40;;;27.90;99.90;;;;;;5144420;28;20031;-74
2023/12/27 12:37:01;;;;;;;8.10;7.28;;;;;;;;;;5144703;28;20153;-74
2023/12/27 12:39:32;;;;;;;8.88;7.65;;;32.30;86.10;;;;;;5143380;28;20833;-74
2023/12/27 12:42:03;;;;;;;9.15;6.93;;;35.40;69.30;;;;;;5143969;28;20345;-75
2023/12/27 12:44:35;;;;;;;6.03;5.45;;;35.70;58.20;;;;;;5144312;28;20047;-75
2023/12/27 12:47:07;;;;;;;8.20;6.05;;;33.90;59.90;;;;;;5144077;28;20027;-74
2023/12/27 12:49:38;;;;;;;7.85;5.97;;;36.50;64.40;;;;;;5139435;28;20395;-75
2023/12/27 12:52:09;;;;;;;7.50;6.35;;;35.70;62.10;;;;;;5128343;28;20494;-73